Time;durP1;ratioP1;P1;durP2;ratioP2;P2;SDS_P1;SDS_P2;PMS_P1;PMS_P2;Temp;Humidity;BMP_temperature;BMP_pressure;BME280_temperature;BME280_humidity;BME280_pressure;Samples;Min_cycle;Max_cycle;Signal;HPM_P1;HPM_P2
2023/09/02 00:01:05;;;;;;;11.63;5.80;;;15.40;99.90;;;;;;5052490;28;20231;-79
2023/09/02 00:03:35;;;;;;;10.17;5.40;;;15.30;99.90;;;;;;5053074;28;20313;-75
2023/09/02 00:06:02;;;;;;;9.17;5.47;;;15.30;99.90;;;;;;5054493;28;20685;-78
2023/09/02 00:08:30;;;;;;;10.70;6.20;;;15.30;99.90;;;;;;5052657;28;20187;-78
2023/09/02 00:10:59;;;;;;;11.20;6.00;;;15.30;99.90;;;;;;5036395;28;20199;-79
2023/09/02 00:13:27;;;;;;;11.63;5.87;;;15.30;99.90;;;;;;5052917;28;20215;-79
2023/09/02 00:15:56;;;;;;;10.70;6.13;;;15.30;99.90;;;;;;5034744;28;20201;-79
2023/09/02 00:18:25;;;;;;;8.60;5.37;;;15.30;99.90;;;;;;5034701;28;20245;-78
2023/09/02 00:20:53;;;;;;;10.67;5.90;;;15.30;99.90;;;;;;5053138;28;20272;-79
2023/09/02 00:23:21;;;;;;;10.47;6.00;;;15.30;99.90;;;;;;5052804;28;20234;-79
2023/09/02 00:25:50;;;;;;;9.20;5.90;;;15.30;99.90;;;;;;5034414;28;20282;-79
2023/09/02 00:28:18;;;;;;;8.60;5.63;;;15.20;99.90;;;;;;5052263;28;20223;-79
2023/09/02 00:30:46;;;;;;;11.23;5.53;;;15.20;99.90;;;;;;5052393;28;20191;-79
2023/09/02 00:33:14;;;;;;;8.17;5.53;;;15.20;99.90;;;;;;5052216;28;20190;-78
2023/09/02 00:35:42;;;;;;;8.27;5.27;;;15.20;99.90;;;;;;5052321;28;20218;-79
2023/09/02 00:38:10;;;;;;;9.93;5.87;;;15.20;99.90;;;;;;5051976;28;20335;-79
2023/09/02 00:40:42;;;;;;;10.67;5.83;;;15.30;99.90;;;;;;5034802;28;20725;-79
2023/09/02 00:43:10;;;;;;;9.57;6.10;;;15.30;99.90;;;;;;5053790;28;20218;-78
2023/09/02 00:45:38;;;;;;;8.00;6.20;;;15.30;99.90;;;;;;5052355;28;20252;-79
2023/09/02 00:48:06;;;;;;;13.27;5.77;;;15.30;99.90;;;;;;5052203;28;20194;-79
2023/09/02 00:50:35;;;;;;;10.30;6.20;;;15.20;99.90;;;;;;5035853;28;20222;-78
2023/09/02 00:53:03;;;;;;;9.93;6.23;;;15.20;99.90;;;;;;5052134;28;20233;-79
2023/09/02 00:55:31;;;;;;;11.77;6.97;;;15.20;99.90;;;;;;5052181;28;20201;-80
2023/09/02 00:58:02;;;;;;;11.37;6.40;;;15.10;99.90;;;;;;5052216;28;20202;-79
2023/09/02 01:00:30;;;;;;;10.17;6.63;;;15.10;99.90;;;;;;5052904;28;20191;-79
2023/09/02 01:02:59;;;;;;;13.40;6.70;;;15.10;99.90;;;;;;5051879;28;20217;-78
2023/09/02 01:05:27;;;;;;;10.60;6.77;;;15.10;99.90;;;;;;5051708;28;20245;-79
2023/09/02 01:07:56;;;;;;;13.47;6.97;;;15.10;99.90;;;;;;5053047;28;20195;-78
2023/09/02 01:10:28;;;;;;;12.30;6.73;;;15.10;99.90;;;;;;5034202;28;20198;-76
2023/09/02 01:12:57;;;;;;;12.50;6.90;;;15.10;99.90;;;;;;5033877;28;20278;-78
2023/09/02 01:15:25;;;;;;;11.20;7.17;;;15.10;99.90;;;;;;5051524;28;20228;-79
2023/09/02 01:17:53;;;;;;;13.17;6.80;;;15.00;99.90;;;;;;5051460;28;20191;-79
2023/09/02 01:20:24;;;;;;;11.70;7.23;;;15.00;99.90;;;;;;5051572;28;20215;-79
2023/09/02 01:23:04;;;;;;;9.63;6.80;;;15.00;99.90;;;;;;5052747;28;20225;-79
2023/09/02 01:26:17;;;;;;;10.57;6.77;;;15.00;99.90;;;;;;5034336;28;20666;-79
2023/09/02 01:28:46;;;;;;;14.10;7.30;;;14.90;99.90;;;;;;4953741;28;20206;-79
2023/09/02 01:31:16;;;;;;;10.00;7.00;;;15.00;99.90;;;;;;4970217;28;20209;-79
2023/09/02 01:33:47;;;;;;;10.40;7.03;;;14.90;99.90;;;;;;4970066;28;20300;-78
2023/09/02 01:36:17;;;;;;;11.43;7.10;;;14.90;99.90;;;;;;4954264;28;20222;-79
2023/09/02 01:38:45;;;;;;;10.53;7.30;;;14.90;99.90;;;;;;4955236;28;20217;-77
2023/09/02 01:41:15;;;;;;;14.20;7.00;;;14.90;99.90;;;;;;4970137;28;20208;-74
2023/09/02 01:43:44;;;;;;;10.67;7.27;;;14.90;99.90;;;;;;4953801;28;20217;-77
2023/09/02 01:46:12;;;;;;;12.27;8.20;;;14.80;99.90;;;;;;4955315;28;20206;-75
2023/09/02 01:48:41;;;;;;;12.37;7.20;;;14.80;99.90;;;;;;4969905;28;20193;-76
2023/09/02 01:51:09;;;;;;;11.27;7.63;;;14.80;99.90;;;;;;4970278;28;20217;-76
2023/09/02 01:53:37;;;;;;;13.20;7.57;;;14.70;99.90;;;;;;4970022;28;20699;-77
2023/09/02 01:56:05;;;;;;;11.00;7.20;;;14.70;99.90;;;;;;4953494;28;20294;-76
2023/09/02 01:58:32;;;;;;;12.40;7.30;;;14.80;99.90;;;;;;4969995;28;20650;-77
2023/09/02 02:01:00;;;;;;;13.37;7.33;;;14.80;99.90;;;;;;4953333;28;20643;-76
2023/09/02 02:03:33;;;;;;;14.57;7.30;;;14.70;99.90;;;;;;4969637;28;20304;-77
2023/09/02 02:06:05;;;;;;;15.13;7.87;;;14.70;99.90;;;;;;5029644;28;20231;-77
2023/09/02 02:08:43;;;;;;;13.80;7.97;;;14.70;99.90;;;;;;5050700;28;20177;-77
2023/09/02 02:11:11;;;;;;;11.27;7.10;;;14.70;99.90;;;;;;5049544;28;20190;-76
2023/09/02 02:13:39;;;;;;;11.20;7.60;;;14.80;99.90;;;;;;5050584;28;20275;-76
2023/09/02 02:16:14;;;;;;;11.77;7.50;;;14.70;99.90;;;;;;5032695;28;20290;-75
2023/09/02 02:18:45;;;;;;;11.73;7.43;;;14.60;99.90;;;;;;5050273;28;20555;-76
2023/09/02 02:21:13;;;;;;;14.27;7.87;;;14.60;99.90;;;;;;5033477;28;20222;-74
2023/09/02 02:23:41;;;;;;;11.40;7.07;;;14.60;99.90;;;;;;5050126;28;20223;-76
2023/09/02 02:26:08;;;;;;;14.97;7.77;;;14.60;99.90;;;;;;5033528;28;20233;-76
2023/09/02 02:28:39;;;;;;;12.43;7.77;;;14.60;99.90;;;;;;5032552;28;20235;-76
2023/09/02 02:31:07;;;;;;;12.33;7.70;;;14.50;99.90;;;;;;5032578;28;20336;-76
2023/09/02 02:33:37;;;;;;;11.40;7.60;;;14.50;99.90;;;;;;5050346;28;20665;-76
2023/09/02 02:36:05;;;;;;;13.10;7.53;;;14.50;99.90;;;;;;5032664;28;20225;-76
2023/09/02 02:38:34;;;;;;;13.20;7.80;;;14.50;99.90;;;;;;5050127;28;20199;-75
2023/09/02 02:41:02;;;;;;;12.47;7.60;;;14.50;99.90;;;;;;5050004;28;20679;-75
2023/09/02 02:43:30;;;;;;;13.53;7.53;;;14.50;99.90;;;;;;5032094;28;20689;-76
2023/09/02 02:45:58;;;;;;;13.17;8.30;;;14.40;99.90;;;;;;5050303;28;20725;-75
2023/09/02 02:48:28;;;;;;;12.17;7.87;;;14.30;99.90;;;;;;5050119;28;20190;-75
2023/09/02 02:50:57;;;;;;;13.40;8.27;;;14.30;99.90;;;;;;5032131;28;20621;-77
2023/09/02 02:53:25;;;;;;;13.97;7.50;;;14.20;99.90;;;;;;5049787;28;20197;-79
2023/09/02 02:55:53;;;;;;;13.30;8.50;;;14.20;99.90;;;;;;5032188;28;20195;-78
2023/09/02 02:58:21;;;;;;;12.87;7.93;;;14.10;99.90;;;;;;5050287;28;20222;-79
2023/09/02 03:00:49;;;;;;;11.23;8.00;;;14.10;99.90;;;;;;5050243;28;20234;-79
2023/09/02 03:03:20;;;;;;;13.93;8.40;;;14.10;99.90;;;;;;5050052;28;20248;-79
2023/09/02 03:06:00;;;;;;;15.30;8.57;;;14.10;99.90;;;;;;5050348;28;20252;-78
2023/09/02 03:08:29;;;;;;;14.37;8.53;;;14.00;99.90;;;;;;5050071;28;20277;-79
2023/09/02 03:11:00;;;;;;;13.33;8.23;;;13.90;99.90;;;;;;5031952;28;20183;-80
2023/09/02 03:13:30;;;;;;;12.97;8.27;;;13.90;99.90;;;;;;5049472;28;20179;-79
2023/09/02 03:15:58;;;;;;;13.33;8.50;;;13.90;99.90;;;;;;5049645;28;20578;-79
2023/09/02 03:18:28;;;;;;;12.97;8.10;;;13.80;99.90;;;;;;5051270;28;20216;-79
2023/09/02 03:21:08;;;;;;;12.40;8.27;;;13.80;99.90;;;;;;5049880;28;20215;-79
2023/09/02 03:23:36;;;;;;;13.20;8.20;;;13.80;99.90;;;;;;5052296;28;20233;-79
2023/09/02 03:26:17;;;;;;;14.93;8.47;;;13.70;99.90;;;;;;5019248;28;20636;-79
2023/09/02 03:28:45;;;;;;;13.27;8.40;;;13.60;99.90;;;;;;5053882;28;20197;-79
2023/09/02 03:31:14;;;;;;;11.03;8.20;;;13.60;99.90;;;;;;5053667;28;20198;-78
2023/09/02 03:33:42;;;;;;;12.20;8.47;;;13.50;99.90;;;;;;5053832;28;20642;-79
2023/09/02 03:36:15;;;;;;;15.07;8.70;;;13.50;99.90;;;;;;5035805;28;20685;-79
2023/09/02 03:38:47;;;;;;;13.00;8.63;;;13.50;99.90;;;;;;5053341;28;20294;-78
2023/09/02 03:41:17;;;;;;;15.97;8.67;;;13.40;99.90;;;;;;5055213;28;20304;-78
2023/09/02 03:43:46;;;;;;;15.43;8.63;;;13.40;99.90;;;;;;5053055;28;20750;-79
2023/09/02 03:46:14;;;;;;;14.83;8.57;;;13.50;99.90;;;;;;5053224;28;20664;-78
2023/09/02 03:48:42;;;;;;;12.50;8.50;;;13.50;99.90;;;;;;5053113;28;20681;-80
2023/09/02 03:51:16;;;;;;;13.97;8.40;;;13.50;99.90;;;;;;5054695;28;20676;-80
2023/09/02 03:53:44;;;;;;;13.83;8.37;;;13.50;99.90;;;;;;5036856;28;20643;-80
2023/09/02 03:56:12;;;;;;;17.77;9.13;;;13.50;99.90;;;;;;5054963;28;20206;-79
2023/09/02 03:58:41;;;;;;;12.27;8.57;;;13.50;99.90;;;;;;5035041;28;20204;-79
2023/09/02 04:01:08;;;;;;;12.30;8.27;;;13.50;99.90;;;;;;5054158;28;20631;-80
2023/09/02 04:03:39;;;;;;;11.73;8.77;;;13.50;99.90;;;;;;5052640;28;20214;-80
2023/09/02 04:06:06;;;;;;;18.97;10.50;;;13.40;99.90;;;;;;5035865;28;20814;-80
2023/09/02 04:08:36;;;;;;;17.00;9.97;;;13.50;99.90;;;;;;5035245;28;20244;-75
2023/09/02 04:11:10;;;;;;;14.93;9.30;;;13.50;99.90;;;;;;5054393;28;20194;-76
2023/09/02 04:13:38;;;;;;;29.00;18.83;;;13.40;99.90;;;;;;5018686;28;20266;-76
2023/09/02 04:16:08;;;;;;;17.30;12.60;;;13.40;99.90;;;;;;5053052;28;20233;-77
2023/09/02 04:18:36;;;;;;;23.73;14.90;;;13.40;99.90;;;;;;5035732;28;20267;-78
2023/09/02 04:21:04;;;;;;;35.00;22.47;;;13.40;99.90;;;;;;5054515;28;20272;-78
2023/09/02 04:23:32;;;;;;;27.57;16.47;;;13.40;99.90;;;;;;5052392;28;20288;-79
2023/09/02 04:26:03;;;;;;;33.30;21.23;;;13.40;99.90;;;;;;5035833;28;20183;-78
2023/09/02 04:28:31;;;;;;;32.47;21.50;;;13.40;99.90;;;;;;5054469;28;20278;-79
2023/09/02 04:30:59;;;;;;;39.90;25.70;;;13.60;99.90;;;;;;5052547;28;20185;-79
2023/09/02 04:33:27;;;;;;;41.30;26.97;;;13.40;99.90;;;;;;5051906;28;20195;-79
2023/09/02 04:35:55;;;;;;;38.80;24.60;;;13.50;99.90;;;;;;5053854;28;20298;-77
2023/09/02 04:38:23;;;;;;;34.80;22.80;;;13.40;99.90;;;;;;5052487;28;20206;-78
2023/09/02 04:40:51;;;;;;;36.70;24.80;;;13.50;99.90;;;;;;5052274;28;20534;-80
2023/09/02 04:43:19;;;;;;;38.00;25.03;;;13.50;99.90;;;;;;5052117;28;20211;-78
2023/09/02 04:45:47;;;;;;;39.50;26.37;;;13.60;99.90;;;;;;5052000;28;20214;-79
2023/09/02 04:48:16;;;;;;;38.97;26.27;;;13.60;99.90;;;;;;5052076;28;20273;-79
2023/09/02 04:50:43;;;;;;;42.13;26.33;;;13.60;99.90;;;;;;5052916;28;20284;-79
2023/09/02 04:53:11;;;;;;;31.07;20.83;;;13.70;99.90;;;;;;5034329;28;20198;-79
2023/09/02 04:55:39;;;;;;;33.60;22.97;;;13.80;99.90;;;;;;5053258;28;20642;-79
2023/09/02 04:58:07;;;;;;;34.70;23.07;;;13.80;99.90;;;;;;5052444;28;20241;-79
2023/09/02 05:00:35;;;;;;;28.20;19.73;;;13.90;99.90;;;;;;5051736;28;20199;-79
2023/09/02 05:03:03;;;;;;;25.03;16.60;;;14.00;99.90;;;;;;5051897;28;20222;-79
2023/09/02 05:05:33;;;;;;;20.47;15.07;;;14.10;99.90;;;;;;5052891;28;20260;-79
2023/09/02 05:08:02;;;;;;;21.07;13.17;;;14.10;99.90;;;;;;5052444;28;20468;-79
2023/09/02 05:10:39;;;;;;;21.30;13.37;;;14.20;99.90;;;;;;5018784;28;20209;-79
2023/09/02 05:13:18;;;;;;;21.07;13.53;;;14.30;99.90;;;;;;5051631;28;20327;-79
2023/09/02 05:16:04;;;;;;;18.77;12.67;;;14.40;99.90;;;;;;5021231;28;20217;-79
2023/09/02 05:18:32;;;;;;;19.00;12.90;;;14.50;99.90;;;;;;5019160;28;20205;-77
2023/09/02 05:20:59;;;;;;;17.23;11.83;;;14.50;99.90;;;;;;5051634;28;20221;-78
2023/09/02 05:23:27;;;;;;;15.23;10.70;;;14.60;99.90;;;;;;5052764;28;20570;-78
2023/09/02 05:26:01;;;;;;;18.43;11.00;;;14.70;99.90;;;;;;5035873;28;20196;-78
2023/09/02 05:28:29;;;;;;;16.47;11.23;;;14.80;99.90;;;;;;5053108;28;20187;-78
2023/09/02 05:30:58;;;;;;;16.43;11.07;;;14.90;99.90;;;;;;5051567;28;20642;-79
2023/09/02 05:33:28;;;;;;;17.93;10.90;;;14.80;99.90;;;;;;5052988;28;20195;-80
2023/09/02 05:35:55;;;;;;;16.20;9.90;;;15.00;99.90;;;;;;5052331;28;20298;-79
2023/09/02 05:38:24;;;;;;;16.57;10.30;;;15.10;99.90;;;;;;5034958;28;20199;-79
2023/09/02 05:40:52;;;;;;;14.43;9.57;;;15.20;99.90;;;;;;5052816;28;20654;-79
2023/09/02 05:43:20;;;;;;;13.27;9.07;;;15.30;99.90;;;;;;5052528;28;20214;-79
2023/09/02 05:46:08;;;;;;;18.97;8.90;;;15.40;99.90;;;;;;5033728;28;20293;-78
2023/09/02 05:48:36;;;;;;;15.77;8.97;;;15.50;99.90;;;;;;5034497;28;20208;-78
2023/09/02 05:51:10;;;;;;;11.50;8.30;;;15.50;99.90;;;;;;5034695;28;20225;-78
2023/09/02 05:53:42;;;;;;;10.60;7.93;;;15.60;99.90;;;;;;5052210;28;20228;-78
2023/09/02 05:56:18;;;;;;;14.20;7.90;;;15.70;99.90;;;;;;5016815;28;20194;-78
2023/09/02 05:58:46;;;;;;;15.83;8.30;;;15.70;99.90;;;;;;5051922;28;20195;-78
2023/09/02 06:01:20;;;;;;;13.87;8.57;;;15.80;99.90;;;;;;5015161;28;20768;-79
2023/09/02 06:03:54;;;;;;;14.70;8.30;;;15.80;99.90;;;;;;5031389;28;20215;-79
2023/09/02 06:06:30;;;;;;;15.20;8.47;;;15.80;99.90;;;;;;5032431;28;20265;-78
2023/09/02 06:09:06;;;;;;;13.03;8.30;;;15.90;99.90;;;;;;5030953;28;20202;-78
2023/09/02 06:11:40;;;;;;;10.63;7.93;;;16.10;99.90;;;;;;5030756;28;20187;-78
2023/09/02 06:14:08;;;;;;;13.13;7.93;;;16.30;99.90;;;;;;5030611;28;20360;-78
2023/09/02 06:16:51;;;;;;;14.43;7.63;;;16.30;99.90;;;;;;5031784;28;20184;-78
2023/09/02 06:19:45;;;;;;;11.77;7.10;;;16.30;99.90;;;;;;5015810;28;20226;-79
2023/09/02 06:22:28;;;;;;;12.07;7.80;;;16.60;99.90;;;;;;5016373;28;20397;-78
2023/09/02 06:25:21;;;;;;;16.97;7.70;;;16.80;99.90;;;;;;5030522;28;20215;-77
2023/09/02 06:28:07;;;;;;;13.00;7.00;;;16.90;99.90;;;;;;5029740;28;20207;-78
2023/09/02 06:30:38;;;;;;;13.03;7.40;;;16.90;99.90;;;;;;5030364;28;20205;-78
2023/09/02 06:33:06;;;;;;;12.47;6.70;;;17.00;99.90;;;;;;5030338;28;20191;-78
2023/09/02 06:35:33;;;;;;;15.17;7.20;;;17.10;99.90;;;;;;5030747;28;20381;-78
2023/09/02 06:38:01;;;;;;;10.97;6.33;;;17.30;99.90;;;;;;5031622;28;20191;-77
2023/09/02 06:40:33;;;;;;;11.13;6.37;;;17.40;99.90;;;;;;5029449;28;20191;-77
2023/09/02 06:43:03;;;;;;;9.33;6.53;;;17.40;99.90;;;;;;5013733;28;20195;-78
2023/09/02 06:45:31;;;;;;;14.43;6.73;;;17.60;99.90;;;;;;5013839;28;20202;-78
2023/09/02 06:47:59;;;;;;;13.90;6.43;;;17.60;99.90;;;;;;5031656;28;20456;-79
2023/09/02 06:50:28;;;;;;;9.83;6.30;;;17.70;99.90;;;;;;5030414;28;20667;-78
2023/09/02 06:53:01;;;;;;;9.40;5.50;;;17.80;99.90;;;;;;5029805;28;20184;-79
2023/09/02 06:55:43;;;;;;;7.93;5.47;;;18.00;99.90;;;;;;5030108;28;20199;-77
2023/09/02 06:58:10;;;;;;;7.70;5.40;;;18.10;99.90;;;;;;5028602;28;20663;-78
2023/09/02 07:00:42;;;;;;;9.07;5.07;;;18.20;99.90;;;;;;5034151;28;20239;-78
2023/09/02 07:03:13;;;;;;;9.43;5.70;;;18.30;99.90;;;;;;5016588;28;20206;-79
2023/09/02 07:05:47;;;;;;;9.47;5.50;;;18.40;99.90;;;;;;5017652;28;20302;-79
2023/09/02 07:08:24;;;;;;;9.67;5.53;;;18.40;99.90;;;;;;5017726;28;20198;-79
2023/09/02 07:11:09;;;;;;;6.73;4.83;;;18.40;99.90;;;;;;5051425;28;20225;-79
2023/09/02 07:13:56;;;;;;;7.23;4.10;;;18.50;99.90;;;;;;5014173;28;20245;-79
2023/09/02 07:16:51;;;;;;;5.90;3.67;;;18.60;99.90;;;;;;5001756;28;20294;-80
2023/09/02 07:19:23;;;;;;;6.50;4.10;;;18.80;99.90;;;;;;5014160;28;20666;-80
2023/09/02 07:21:51;;;;;;;6.50;4.10;;;18.80;99.90;;;;;;5013335;28;20207;-79
2023/09/02 07:24:19;;;;;;;7.63;4.50;;;19.00;99.90;;;;;;5031233;28;20218;-79
2023/09/02 07:26:47;;;;;;;7.80;4.13;;;19.10;99.90;;;;;;5013508;28;20202;-79
2023/09/02 07:29:18;;;;;;;5.60;3.70;;;19.30;99.90;;;;;;5013395;28;20199;-80
2023/09/02 07:31:46;;;;;;;6.83;3.70;;;19.30;99.90;;;;;;5013608;28;20187;-79
2023/09/02 07:34:14;;;;;;;6.33;4.03;;;19.40;99.90;;;;;;5030978;28;20195;-81
2023/09/02 07:36:45;;;;;;;7.33;4.10;;;19.40;99.90;;;;;;5013865;28;20207;-80
2023/09/02 07:39:54;;;;;;;6.60;3.50;;;19.60;99.90;;;;;;5030835;28;20187;-79
2023/09/02 07:42:25;;;;;;;7.73;3.43;;;19.70;99.90;;;;;;5013425;28;20709;-79
2023/09/02 07:45:02;;;;;;;5.03;3.30;;;19.70;99.90;;;;;;5013027;28;20240;-79
2023/09/02 07:47:31;;;;;;;4.77;3.10;;;19.80;99.90;;;;;;5031345;28;20180;-79
2023/09/02 07:49:59;;;;;;;6.90;3.33;;;19.90;99.90;;;;;;5013426;28;20200;-79
2023/09/02 07:52:26;;;;;;;6.00;3.63;;;20.00;99.90;;;;;;5030687;28;20601;-79
2023/09/02 07:54:54;;;;;;;6.53;3.50;;;20.10;99.90;;;;;;5030187;28;20196;-79
2023/09/02 07:57:22;;;;;;;7.40;3.80;;;20.20;99.90;;;;;;5013449;28;20199;-79
2023/09/02 07:59:50;;;;;;;7.93;3.30;;;20.10;99.90;;;;;;5031098;28;20195;-79
2023/09/02 08:02:18;;;;;;;5.20;3.13;;;20.30;99.90;;;;;;5029150;28;20247;-78
2023/09/02 08:04:46;;;;;;;4.40;2.83;;;20.50;99.90;;;;;;5029079;28;20257;-78
2023/09/02 08:07:22;;;;;;;10.73;4.83;;;20.80;99.90;;;;;;5012972;28;20223;-78
2023/09/02 08:09:57;;;;;;;6.60;3.30;;;20.80;99.90;;;;;;5032768;28;20274;-79
2023/09/02 08:12:43;;;;;;;7.80;3.77;;;20.80;99.90;;;;;;5016590;28;20294;-77
2023/09/02 08:15:12;;;;;;;6.93;4.10;;;20.90;99.90;;;;;;5016930;28;20196;-78
2023/09/02 08:17:44;;;;;;;6.37;3.67;;;21.10;99.90;;;;;;5015897;28;20199;-78
2023/09/02 08:20:13;;;;;;;6.17;3.30;;;21.20;99.90;;;;;;5031524;28;20199;-78
2023/09/02 08:22:43;;;;;;;4.43;3.00;;;21.30;99.90;;;;;;5034148;28;20195;-78
2023/09/02 08:25:11;;;;;;;5.50;3.20;;;21.70;99.90;;;;;;5015384;28;20219;-78
2023/09/02 08:27:42;;;;;;;5.70;2.97;;;22.60;99.90;;;;;;5032491;28;20196;-77
2023/09/02 08:30:14;;;;;;;5.93;3.05;;;23.70;99.90;;;;;;5032852;28;20191;-78
2023/09/02 08:32:43;;;;;;;5.22;3.20;;;24.60;99.90;;;;;;5000384;28;20359;-77
2023/09/02 08:35:12;;;;;;;8.52;3.45;;;25.20;99.90;;;;;;5034125;28;20254;-78
2023/09/02 08:37:41;;;;;;;4.43;3.10;;;25.60;99.90;;;;;;5016039;28;20278;-78
2023/09/02 08:40:23;;;;;;;6.93;3.00;;;25.30;99.90;;;;;;5014758;28;20203;-77
2023/09/02 08:42:50;;;;;;;5.03;2.78;;;25.60;99.90;;;;;;5033943;28;20199;-78
2023/09/02 08:45:22;;;;;;;7.00;3.20;;;25.70;99.90;;;;;;5033424;28;20238;-78
2023/09/02 08:47:57;;;;;;;3.88;2.80;;;25.70;99.90;;;;;;5014370;28;20265;-78
2023/09/02 08:50:27;;;;;;;4.68;2.70;;;26.00;99.90;;;;;;5033408;28;20231;-78
2023/09/02 08:52:55;;;;;;;7.35;3.22;;;25.90;99.90;;;;;;5031912;28;20666;-78
2023/09/02 08:55:28;;;;;;;5.03;2.70;;;26.10;99.90;;;;;;5032226;28;20200;-78
2023/09/02 08:57:59;;;;;;;4.85;2.97;;;26.10;99.90;;;;;;5015308;28;20195;-76
2023/09/02 09:00:27;;;;;;;4.25;2.92;;;26.10;99.90;;;;;;5032389;28;20191;-80
2023/09/02 09:02:56;;;;;;;4.15;2.45;;;26.10;99.90;;;;;;5015721;28;20283;-80
2023/09/02 09:05:24;;;;;;;4.50;2.80;;;26.20;99.90;;;;;;5033558;28;20227;-79
2023/09/02 09:08:14;;;;;;;4.05;2.60;;;26.50;99.90;;;;;;5032753;28;20199;-85
2023/09/02 09:10:51;;;;;;;4.03;2.65;;;26.80;99.90;;;;;;5000339;28;20195;-84
2023/09/02 09:13:46;;;;;;;6.43;2.72;;;26.70;99.90;;;;;;5015851;28;20275;-85
2023/09/02 09:16:35;;;;;;;3.72;2.60;;;26.80;99.90;;;;;;5015854;28;20204;-84
2023/09/02 09:19:04;;;;;;;5.28;2.92;;;26.90;98.50;;;;;;5015554;28;20198;-84
2023/09/02 09:21:37;;;;;;;4.07;2.75;;;26.30;99.90;;;;;;5016109;28;20234;-83
2023/09/02 09:24:12;;;;;;;5.45;2.20;;;26.40;99.00;;;;;;4999541;28;20215;-84
2023/09/02 09:26:44;;;;;;;3.75;2.53;;;26.60;99.90;;;;;;4998796;28;20196;-85
2023/09/02 09:29:17;;;;;;;4.05;2.72;;;26.80;98.30;;;;;;5015872;28;20187;-83
2023/09/02 09:31:46;;;;;;;4.30;2.67;;;26.50;97.80;;;;;;5031603;28;20689;-82
2023/09/02 09:34:14;;;;;;;4.47;2.55;;;26.30;98.70;;;;;;5013389;28;20229;-84
2023/09/02 09:36:44;;;;;;;3.83;2.50;;;26.10;99.40;;;;;;5032956;28;20273;-85
2023/09/02 09:39:41;;;;;;;5.53;2.90;;;26.70;99.20;;;;;;5015215;28;20286;-85
2023/09/02 09:42:12;;;;;;;4.05;2.58;;;26.80;97.80;;;;;;4998900;28;20203;-85
2023/09/02 09:45:03;;;;;;;5.05;2.70;;;26.80;96.70;;;;;;5015175;28;20701;-85
2023/09/02 09:47:50;;;;;;;5.28;2.55;;;26.90;97.10;;;;;;5014255;28;20199;-86
2023/09/02 09:51:49;;;;;;;5.07;2.40;;;27.00;97.80;;;;;;4951810;28;20709;-87
2023/09/02 09:58:58;;;;;;;6.25;2.40;;;27.40;95.80;;;;;;4838452;29;20213;-87
2023/09/02 10:01:49;;;;;;;;;;;;;;;;;;;;;
2023/09/02 10:04:20;;;;;;;4.57;2.63;;;26.70;96.30;;;;;;4820589;29;20230;-87
2023/09/02 10:07:03;;;;;;;3.78;2.40;;;27.30;96.10;;;;;;4807278;29;20317;-87
2023/09/02 10:09:54;;;;;;;6.10;2.88;;;28.30;96.40;;;;;;4805379;29;20211;-86
2023/09/02 10:12:25;;;;;;;4.63;2.70;;;29.00;95.30;;;;;;4790920;29;20210;-86
2023/09/02 10:14:59;;;;;;;4.13;2.65;;;28.30;93.90;;;;;;4821126;29;20207;-86
2023/09/02 10:17:35;;;;;;;4.68;2.58;;;28.10;93.20;;;;;;4806027;29;20246;-86
2023/09/02 10:20:05;;;;;;;3.85;2.70;;;28.60;93.50;;;;;;4806360;29;20189;-86
2023/09/02 10:22:39;;;;;;;3.95;2.65;;;27.60;92.90;;;;;;4830715;29;20220;-86
2023/09/02 10:25:34;;;;;;;4.50;2.83;;;28.00;93.00;;;;;;4856873;29;20301;-86
2023/09/02 10:28:12;;;;;;;3.85;2.67;;;28.10;92.90;;;;;;4826791;29;20210;-86
2023/09/02 10:30:49;;;;;;;5.90;3.47;;;28.30;93.00;;;;;;4874714;29;20687;-86
2023/09/02 10:33:34;;;;;;;4.85;3.58;;;28.10;91.90;;;;;;4904488;28;20657;-86
2023/09/02 10:36:28;;;;;;;4.53;2.70;;;27.80;92.10;;;;;;4938518;28;20283;-88
2023/09/02 10:39:52;;;;;;;3.55;2.47;;;27.40;93.40;;;;;;4953963;28;20205;-85
2023/09/02 10:44:00;;;;;;;3.78;3.03;;;28.00;93.30;;;;;;4890644;29;20676;-88
2023/09/02 10:46:35;;;;;;;5.18;2.50;;;28.70;92.00;;;;;;4873757;29;20246;-86
2023/09/02 10:49:15;;;;;;;5.18;2.60;;;28.80;91.00;;;;;;4878183;29;20204;-86
2023/09/02 10:51:57;;;;;;;3.83;2.70;;;29.00;90.80;;;;;;4879403;29;20231;-84
2023/09/02 10:55:04;;;;;;;4.78;2.55;;;28.60;90.50;;;;;;4878330;29;20279;-84
2023/09/02 10:57:53;;;;;;;4.78;2.47;;;28.30;91.80;;;;;;4859420;29;20573;-78
2023/09/02 11:00:29;;;;;;;5.13;2.70;;;28.60;91.90;;;;;;4867970;29;20532;-79
2023/09/02 11:03:10;;;;;;;5.80;2.70;;;29.20;89.10;;;;;;4912938;29;20286;-77
2023/09/02 11:06:07;;;;;;;3.75;2.38;;;29.70;86.80;;;;;;4896916;29;20227;-79
2023/09/02 11:08:50;;;;;;;4.53;2.60;;;29.50;88.70;;;;;;4896365;29;20227;-79
2023/09/02 11:11:21;;;;;;;5.38;2.63;;;30.30;86.60;;;;;;4897249;29;20263;-78
2023/09/02 11:14:07;;;;;;;3.72;2.50;;;31.20;84.40;;;;;;4935689;29;20298;-79
2023/09/02 11:17:29;;;;;;;3.85;2.33;;;31.90;84.50;;;;;;4934568;29;20210;-79
2023/09/02 11:20:08;;;;;;;4.15;2.58;;;32.30;79.40;;;;;;4918494;29;20229;-77
2023/09/02 11:22:48;;;;;;;4.40;2.53;;;32.40;77.90;;;;;;4949988;29;20198;-79
2023/09/02 11:25:25;;;;;;;5.55;2.40;;;31.10;81.00;;;;;;4934087;29;20232;-80
2023/09/02 11:28:00;;;;;;;3.75;2.50;;;30.80;83.00;;;;;;4934879;29;20561;-79
2023/09/02 11:30:33;;;;;;;2.65;2.15;;;30.80;79.80;;;;;;4919157;29;20647;-79
2023/09/02 11:33:04;;;;;;;3.88;2.42;;;30.70;80.90;;;;;;4934558;29;20256;-79
2023/09/02 11:35:36;;;;;;;2.75;2.22;;;30.70;79.30;;;;;;5007951;28;20259;-79
2023/09/02 11:38:19;;;;;;;3.42;2.42;;;31.20;82.40;;;;;;5009908;28;20212;-79
2023/09/02 11:40:55;;;;;;;3.97;2.25;;;32.10;81.40;;;;;;5009083;28;20216;-80
2023/09/02 11:43:42;;;;;;;4.75;2.40;;;33.30;77.40;;;;;;4994900;28;20204;-81
2023/09/02 11:46:37;;;;;;;5.00;2.40;;;32.20;75.60;;;;;;5013278;28;20222;-79
2023/09/02 11:49:12;;;;;;;3.90;2.30;;;30.60;76.00;;;;;;5012805;28;20680;-84
2023/09/02 11:52:02;;;;;;;5.57;2.30;;;30.20;79.10;;;;;;4997882;28;20298;-84
2023/09/02 11:54:38;;;;;;;4.15;2.50;;;29.40;78.40;;;;;;4998702;28;20196;-83
2023/09/02 11:57:29;;;;;;;3.70;2.10;;;29.20;80.20;;;;;;5011511;28;20278;-83
2023/09/02 12:00:07;;;;;;;5.28;2.58;;;30.90;79.80;;;;;;5014536;28;20284;-84
2023/09/02 12:03:03;;;;;;;3.45;2.50;;;31.80;74.90;;;;;;5012053;28;20759;-82
2023/09/02 12:06:09;;;;;;;3.95;2.10;;;32.60;72.80;;;;;;5000340;28;20374;-84
2023/09/02 12:09:44;;;;;;;6.28;2.30;;;33.80;70.40;;;;;;4953196;28;20196;-84
2023/09/02 12:12:51;;;;;;;3.63;2.13;;;34.40;66.90;;;;;;4996658;28;20200;-83
2023/09/02 12:15:40;;;;;;;2.72;2.00;;;32.70;64.80;;;;;;4997646;28;20207;-83
2023/09/02 12:18:37;;;;;;;3.20;2.22;;;33.10;68.10;;;;;;4996945;28;20693;-83
2023/09/02 12:21:58;;;;;;;3.33;2.05;;;33.30;66.10;;;;;;5008533;28;20220;-83
2023/09/02 12:24:51;;;;;;;3.22;2.05;;;34.00;65.90;;;;;;4996452;28;20211;-83
2023/09/02 12:27:43;;;;;;;4.60;2.05;;;34.30;64.40;;;;;;5013375;28;20199;-83
2023/09/02 12:31:08;;;;;;;4.07;2.33;;;34.60;63.30;;;;;;5011819;28;20238;-85
2023/09/02 12:38:30;;;;;;;2.92;1.92;;;32.80;64.20;;;;;;4932836;29;20265;-84
2023/09/02 12:42:19;;;;;;;3.42;2.08;;;33.30;65.70;;;;;;4905307;29;20195;-84
2023/09/02 12:45:44;;;;;;;3.10;1.92;;;32.40;66.00;;;;;;4919980;29;20234;-84
2023/09/02 12:48:52;;;;;;;3.17;2.10;;;31.90;66.10;;;;;;4866711;29;20577;-84
2023/09/02 12:52:36;;;;;;;4.47;2.20;;;32.60;64.10;;;;;;4882616;29;20232;-83
2023/09/02 12:56:04;;;;;;;3.13;1.98;;;33.00;64.30;;;;;;4876258;29;20232;-86
2023/09/02 12:59:00;;;;;;;4.47;2.00;;;32.80;61.40;;;;;;4837063;29;20318;-84
2023/09/02 13:02:09;;;;;;;3.95;1.85;;;32.00;62.50;;;;;;4836455;29;20754;-84
2023/09/02 13:05:14;;;;;;;3.58;2.20;;;30.60;66.40;;;;;;4859912;29;20221;-84
2023/09/02 13:08:02;;;;;;;4.55;2.10;;;29.80;66.30;;;;;;4876261;29;20212;-82
2023/09/02 13:10:59;;;;;;;4.95;2.35;;;29.50;67.30;;;;;;4847846;29;20205;-86
2023/09/02 13:13:28;;;;;;;3.95;2.30;;;29.20;67.50;;;;;;4861023;29;20209;-82
2023/09/02 13:16:00;;;;;;;6.93;1.92;;;28.90;67.90;;;;;;4897449;29;20216;-84
2023/09/02 13:18:38;;;;;;;2.58;1.77;;;28.40;68.20;;;;;;4899306;29;20220;-82
2023/09/02 13:21:10;;;;;;;3.63;2.00;;;27.70;70.70;;;;;;4898888;29;20701;-83
2023/09/02 13:23:41;;;;;;;3.63;2.35;;;27.20;72.20;;;;;;4898339;29;20199;-83
2023/09/02 13:26:19;;;;;;;4.97;2.53;;;26.70;71.40;;;;;;4916477;29;20312;-83
2023/09/02 13:29:25;;;;;;;4.40;2.30;;;26.20;73.70;;;;;;4916921;29;20199;-84
2023/09/02 13:32:46;;;;;;;3.25;2.05;;;26.20;74.40;;;;;;4916644;29;20206;-84
2023/09/02 13:38:38;;;;;;;4.45;2.13;;;26.40;73.90;;;;;;4913258;29;20295;-81
2023/09/02 13:41:14;;;;;;;3.35;2.00;;;26.70;73.30;;;;;;4913527;29;20203;-83
2023/09/02 13:44:24;;;;;;;3.58;2.17;;;26.40;75.00;;;;;;4912898;29;20207;-82